createdAt,value
2017-09-23T00:00:38.872Z,1018.88
2017-09-23T00:02:33.408Z,1018.89
2017-09-23T00:03:33.360Z,1018.91
2017-09-23T00:05:28.384Z,1018.94
2017-09-23T00:06:28.512Z,1018.97
2017-09-23T00:08:21.921Z,1018.96
2017-09-23T00:09:21.961Z,1018.99
2017-09-23T00:11:14.985Z,1019.04
2017-09-23T00:12:15.016Z,1019.03
2017-09-23T00:14:09.417Z,1019.04
2017-09-23T00:15:09.449Z,1019.02
2017-09-23T00:17:03.945Z,1018.98
2017-09-23T00:18:03.945Z,1018.99
2017-09-23T00:19:57.433Z,1019.04
2017-09-23T00:20:57.442Z,1019.06
2017-09-23T00:22:51.897Z,1019.04
2017-09-23T00:23:51.929Z,1019.02
2017-09-23T00:25:45.538Z,1019.00
2017-09-23T00:26:45.537Z,1018.97
2017-09-23T00:28:39.954Z,1018.98
2017-09-23T00:29:39.986Z,1019.02
2017-09-23T00:31:34.468Z,1018.99
2017-09-23T00:32:34.492Z,1019.03
2017-09-23T00:34:28.972Z,1018.99
2017-09-23T00:35:29.099Z,1019.00
2017-09-23T00:37:23.564Z,1018.98
2017-09-23T00:38:23.588Z,1018.97
2017-09-23T00:40:18.012Z,1018.98
2017-09-23T00:41:18.108Z,1019.01
2017-09-23T00:43:11.621Z,1018.97
2017-09-23T00:44:11.628Z,1018.99
2017-09-23T00:46:04.596Z,1019.00
2017-09-23T00:47:04.668Z,1019.01
2017-09-23T00:48:57.693Z,1019.05
2017-09-23T00:49:57.629Z,1019.09
2017-09-23T00:51:52.116Z,1019.15
2017-09-23T00:52:52.157Z,1019.17
2017-09-23T00:54:47.214Z,1019.24
2017-09-23T00:55:47.316Z,1019.24
2017-09-23T00:57:40.652Z,1019.22
2017-09-23T00:58:40.701Z,1019.23
2017-09-23T01:00:35.173Z,1019.22
2017-09-23T01:01:35.229Z,1019.18
2017-09-23T01:03:29.685Z,1019.14
2017-09-23T01:04:29.677Z,1019.12
2017-09-23T01:06:24.167Z,1019.13
2017-09-23T01:07:24.277Z,1019.11
2017-09-23T01:09:18.649Z,1019.14
2017-09-23T01:10:18.669Z,1019.10
2017-09-23T01:12:13.268Z,1019.15
2017-09-23T01:13:13.261Z,1019.14
2017-09-23T01:15:07.277Z,1019.13
2017-09-23T01:16:06.277Z,1019.18
2017-09-23T01:18:00.845Z,1019.16
2017-09-23T01:19:00.765Z,1019.16
2017-09-23T01:20:55.214Z,1019.19
2017-09-23T01:21:55.261Z,1019.16
2017-09-23T01:23:50.311Z,1019.16
2017-09-23T01:24:50.334Z,1019.16
2017-09-23T01:26:44.774Z,1019.16
2017-09-23T01:27:44.910Z,1019.17
2017-09-23T01:29:39.374Z,1019.23
2017-09-23T01:30:39.334Z,1019.20
2017-09-23T01:32:33.789Z,1019.18
2017-09-23T01:33:33.886Z,1019.20
2017-09-23T01:35:28.270Z,1019.17
2017-09-23T01:36:28.342Z,1019.17
2017-09-23T01:38:21.837Z,1019.17
2017-09-23T01:39:21.829Z,1019.13
2017-09-23T01:41:15.877Z,1019.17
2017-09-23T01:42:15.917Z,1019.14
2017-09-23T01:44:10.885Z,1019.13
2017-09-23T01:45:10.830Z,1019.16
2017-09-23T01:47:04.385Z,1019.18
2017-09-23T01:48:04.446Z,1019.16
2017-09-23T01:49:58.878Z,1019.18
2017-09-23T01:50:59.030Z,1019.22
2017-09-23T01:52:53.382Z,1019.20
2017-09-23T01:53:53.518Z,1019.21
2017-09-23T01:55:47.902Z,1019.22
2017-09-23T01:56:47.878Z,1019.21
2017-09-23T01:58:41.430Z,1019.20
2017-09-23T01:59:41.486Z,1019.21
2017-09-23T02:01:35.943Z,1019.23
2017-09-23T02:02:35.990Z,1019.21
2017-09-23T02:04:30.414Z,1019.21
2017-09-23T02:05:30.526Z,1019.21
2017-09-23T02:07:24.927Z,1019.20
2017-09-23T02:08:24.951Z,1019.23
2017-09-23T02:10:19.480Z,1019.21
2017-09-23T02:11:19.471Z,1019.25
2017-09-23T02:13:13.512Z,1019.21
2017-09-23T02:14:13.583Z,1019.25
2017-09-23T02:16:08.047Z,1019.25
2017-09-23T02:17:08.031Z,1019.24
2017-09-23T02:19:02.615Z,1019.26
2017-09-23T02:20:02.663Z,1019.25
2017-09-23T02:21:55.647Z,1019.30
2017-09-23T02:22:55.711Z,1019.27
2017-09-23T02:24:49.136Z,1019.25
2017-09-23T02:25:49.168Z,1019.25
2017-09-23T02:27:43.639Z,1019.23
2017-09-23T02:28:43.655Z,1019.26
2017-09-23T02:30:37.272Z,1019.16
2017-09-23T02:31:37.263Z,1019.13
2017-09-23T02:33:32.169Z,1019.17
2017-09-23T02:34:32.287Z,1019.16
2017-09-23T02:36:25.791Z,1019.17
2017-09-23T02:37:25.791Z,1019.19
2017-09-23T02:39:18.832Z,1019.16
2017-09-23T02:40:18.847Z,1019.17
2017-09-23T02:42:13.336Z,1019.21
2017-09-23T02:43:13.304Z,1019.23
2017-09-23T02:45:07.967Z,1019.25
2017-09-23T02:46:07.793Z,1019.23
2017-09-23T02:48:02.320Z,1019.22
2017-09-23T02:49:02.328Z,1019.25
2017-09-23T02:50:56.769Z,1019.27
2017-09-23T02:51:56.857Z,1019.28
2017-09-23T02:53:50.345Z,1019.29
2017-09-23T02:54:50.377Z,1019.31
2017-09-23T02:56:43.489Z,1019.35
2017-09-23T02:57:43.416Z,1019.28
2017-09-23T02:59:37.921Z,1019.32
2017-09-23T03:00:37.977Z,1019.33
2017-09-23T03:02:34.009Z,1019.37
2017-09-23T03:03:33.977Z,1019.41
2017-09-23T03:05:28.385Z,1019.42
2017-09-23T03:06:28.505Z,1019.40
2017-09-23T03:08:22.913Z,1019.42
2017-09-23T03:09:22.962Z,1019.40
2017-09-23T03:11:17.409Z,1019.47
2017-09-23T03:12:17.488Z,1019.46
2017-09-23T03:14:12.116Z,1019.48
2017-09-23T03:15:12.152Z,1019.50
2017-09-23T03:17:06.585Z,1019.50
2017-09-23T03:18:06.601Z,1019.49
2017-09-23T03:20:01.082Z,1019.48
2017-09-23T03:21:01.125Z,1019.47
2017-09-23T03:22:56.762Z,1019.52
2017-09-23T03:23:56.778Z,1019.49
2017-09-23T03:25:51.321Z,1019.48
2017-09-23T03:26:51.329Z,1019.46
2017-09-23T03:28:44.282Z,1019.42
2017-09-23T03:29:44.297Z,1019.41
2017-09-23T03:31:38.749Z,1019.42
2017-09-23T03:32:38.778Z,1019.44
2017-09-23T03:34:33.498Z,1019.47
2017-09-23T03:35:33.282Z,1019.50
2017-09-23T03:37:27.723Z,1019.47
2017-09-23T03:38:27.802Z,1019.48
2017-09-23T03:40:21.281Z,1019.50
2017-09-23T03:41:21.369Z,1019.48
2017-09-23T03:43:15.705Z,1019.47
2017-09-23T03:44:15.745Z,1019.46
2017-09-23T03:46:09.872Z,1019.50
2017-09-23T03:47:09.858Z,1019.46
2017-09-23T03:49:03.361Z,1019.48
2017-09-23T03:50:03.313Z,1019.47
2017-09-23T03:51:58.401Z,1019.48
2017-09-23T03:53:00.370Z,1019.48
2017-09-23T03:54:51.890Z,1019.49
2017-09-23T03:55:51.945Z,1019.51
2017-09-23T03:57:44.969Z,1019.48
2017-09-23T03:58:44.898Z,1019.51
2017-09-23T04:00:39.362Z,1019.55
2017-09-23T04:01:39.378Z,1019.52
2017-09-23T04:03:33.842Z,1019.54
2017-09-23T04:04:33.875Z,1019.54
2017-09-23T04:06:28.921Z,1019.55
2017-09-23T04:07:29.018Z,1019.58
2017-09-23T04:09:23.411Z,1019.60
2017-09-23T04:10:23.450Z,1019.59
2017-09-23T04:12:18.010Z,1019.57
2017-09-23T04:13:18.035Z,1019.58
2017-09-23T04:15:12.035Z,1019.58
2017-09-23T04:16:12.035Z,1019.54
2017-09-23T04:18:06.579Z,1019.55
2017-09-23T04:19:06.547Z,1019.54
2017-09-23T04:21:00.012Z,1019.53
2017-09-23T04:22:00.091Z,1019.53
2017-09-23T04:23:53.700Z,1019.49
2017-09-23T04:24:53.644Z,1019.50
2017-09-23T04:26:48.299Z,1019.53
2017-09-23T04:27:48.259Z,1019.53
2017-09-23T04:29:43.195Z,1019.54
2017-09-23T04:30:43.195Z,1019.54
2017-09-23T04:32:36.204Z,1019.55
2017-09-23T04:33:36.244Z,1019.52
2017-09-23T04:35:29.763Z,1019.54
2017-09-23T04:36:29.796Z,1019.50
2017-09-23T04:38:24.420Z,1019.51
2017-09-23T04:39:24.341Z,1019.52
2017-09-23T04:41:18.844Z,1019.49
2017-09-23T04:42:18.796Z,1019.55
2017-09-23T04:44:14.876Z,1019.56
2017-09-23T04:45:14.884Z,1019.60
2017-09-23T04:47:08.341Z,1019.61
2017-09-23T04:48:08.425Z,1019.61
2017-09-23T04:50:02.909Z,1019.63
2017-09-23T04:51:02.996Z,1019.62
2017-09-23T04:52:57.317Z,1019.63
2017-09-23T04:53:57.357Z,1019.65
2017-09-23T04:55:51.029Z,1019.64
2017-09-23T04:56:50.989Z,1019.61
2017-09-23T04:58:45.492Z,1019.64
2017-09-23T04:59:45.474Z,1019.67
2017-09-23T05:01:42.496Z,1019.65
2017-09-23T05:02:42.532Z,1019.61
2017-09-23T05:04:37.032Z,1019.62
2017-09-23T05:05:37.104Z,1019.61
2017-09-23T05:07:31.448Z,1019.58
2017-09-23T05:08:31.488Z,1019.63
2017-09-23T05:10:24.953Z,1019.61
2017-09-23T05:11:24.970Z,1019.64
2017-09-23T05:13:19.464Z,1019.66
2017-09-23T05:14:18.536Z,1019.70
2017-09-23T05:16:11.543Z,1019.73
2017-09-23T05:17:11.584Z,1019.71
2017-09-23T05:19:06.024Z,1019.77
2017-09-23T05:20:06.039Z,1019.77
2017-09-23T05:22:00.568Z,1019.77
2017-09-23T05:23:00.632Z,1019.80
2017-09-23T05:24:53.600Z,1019.83
2017-09-23T05:25:53.656Z,1019.81
2017-09-23T05:27:48.112Z,1019.82
2017-09-23T05:28:48.136Z,1019.84
2017-09-23T05:30:42.665Z,1019.83
2017-09-23T05:31:42.800Z,1019.85
2017-09-23T05:33:36.080Z,1019.86
2017-09-23T05:34:36.112Z,1019.86
2017-09-23T05:36:29.731Z,1019.89
2017-09-23T05:37:30.633Z,1019.94
2017-09-23T05:39:23.121Z,1019.88
2017-09-23T05:40:23.521Z,1019.86
2017-09-23T05:42:17.708Z,1019.88
2017-09-23T05:43:17.724Z,1019.88
2017-09-23T05:45:12.281Z,1019.93
2017-09-23T05:46:12.209Z,1019.91
2017-09-23T05:48:06.721Z,1019.99
2017-09-23T05:49:06.706Z,1019.99
2017-09-23T05:51:01.160Z,1019.97
2017-09-23T05:52:02.161Z,1019.98
2017-09-23T05:53:55.217Z,1020.01
2017-09-23T05:54:55.241Z,1019.96
2017-09-23T05:56:51.195Z,1020.02
2017-09-23T05:57:51.217Z,1020.02
2017-09-23T05:59:45.706Z,1020.02
2017-09-23T06:00:45.721Z,1020.05
2017-09-23T06:02:40.217Z,1020.03
2017-09-23T06:03:40.225Z,1020.04
2017-09-23T06:05:33.810Z,1020.10
2017-09-23T06:06:33.817Z,1020.07
2017-09-23T06:08:26.842Z,1020.10
2017-09-23T06:09:26.841Z,1020.11
2017-09-23T06:11:20.290Z,1020.12
2017-09-23T06:12:20.321Z,1020.07
2017-09-23T06:14:14.802Z,1020.07
2017-09-23T06:15:14.818Z,1020.11
2017-09-23T06:17:09.306Z,1020.09
2017-09-23T06:18:09.338Z,1020.11
2017-09-23T06:20:03.797Z,1020.09
2017-09-23T06:21:03.834Z,1020.09
2017-09-23T06:22:58.434Z,1020.05
2017-09-23T06:23:58.434Z,1020.02
2017-09-23T06:25:51.435Z,1020.05
2017-09-23T06:26:51.459Z,1020.09
2017-09-23T06:28:45.891Z,1020.10
2017-09-23T06:29:45.947Z,1020.10
2017-09-23T06:31:40.426Z,1020.15
2017-09-23T06:32:40.506Z,1020.11
2017-09-23T06:34:34.899Z,1020.11
2017-09-23T06:35:34.923Z,1020.09
2017-09-23T06:37:29.427Z,1020.10
2017-09-23T06:38:29.451Z,1020.11
2017-09-23T06:40:23.923Z,1020.09
2017-09-23T06:41:23.971Z,1020.10
2017-09-23T06:43:18.469Z,1020.13
2017-09-23T06:44:18.451Z,1020.14
2017-09-23T06:46:12.891Z,1020.15
2017-09-23T06:47:12.947Z,1020.14
2017-09-23T06:49:06.603Z,1020.15
2017-09-23T06:50:06.555Z,1020.17
2017-09-23T06:52:00.997Z,1020.13
2017-09-23T06:53:01.084Z,1020.13
2017-09-23T06:54:55.523Z,1020.19
2017-09-23T06:55:55.532Z,1020.20
2017-09-23T06:57:50.020Z,1020.20
2017-09-23T06:58:50.084Z,1020.22
2017-09-23T07:00:44.500Z,1020.25
2017-09-23T07:01:44.549Z,1020.23
2017-09-23T07:03:39.012Z,1020.25
2017-09-23T07:04:39.030Z,1020.26
2017-09-23T07:06:32.524Z,1020.22
2017-09-23T07:07:32.533Z,1020.26
2017-09-23T07:09:26.991Z,1020.27
2017-09-23T07:10:27.021Z,1020.25
2017-09-23T07:12:23.077Z,1020.26
2017-09-23T07:13:22.109Z,1020.26
2017-09-23T07:15:15.540Z,1020.29
2017-09-23T07:16:15.581Z,1020.33
2017-09-23T07:18:09.053Z,1020.38
2017-09-23T07:19:09.069Z,1020.39
2017-09-23T07:21:02.029Z,1020.45
2017-09-23T07:22:02.071Z,1020.50
2017-09-23T07:23:56.558Z,1020.50
2017-09-23T07:24:56.573Z,1020.48
2017-09-23T07:26:50.101Z,1020.46
2017-09-23T07:27:50.197Z,1020.46
2017-09-23T07:29:44.613Z,1020.49
2017-09-23T07:30:44.637Z,1020.44
2017-09-23T07:32:40.701Z,1020.51
2017-09-23T07:33:40.726Z,1020.49
2017-09-23T07:35:33.686Z,1020.53
2017-09-23T07:36:33.749Z,1020.57
2017-09-23T07:38:28.325Z,1020.63
2017-09-23T07:39:28.310Z,1020.59
2017-09-23T07:41:21.773Z,1020.62
2017-09-23T07:42:21.806Z,1020.61
2017-09-23T07:44:16.287Z,1020.69
2017-09-23T07:45:16.302Z,1020.66
2017-09-23T07:47:10.781Z,1020.74
2017-09-23T07:48:10.813Z,1020.78
2017-09-23T07:50:05.318Z,1020.70
2017-09-23T07:51:05.310Z,1020.73
2017-09-23T07:53:01.391Z,1020.77
2017-09-23T07:54:01.406Z,1020.80
2017-09-23T07:55:54.894Z,1020.81
2017-09-23T07:56:54.895Z,1020.85
2017-09-23T07:58:49.358Z,1020.88
2017-09-23T07:59:49.391Z,1020.90
2017-09-23T08:01:43.879Z,1020.89
2017-09-23T08:02:43.919Z,1020.93
2017-09-23T08:04:38.350Z,1020.97
2017-09-23T08:05:38.399Z,1020.98
2017-09-23T08:07:32.879Z,1020.96
2017-09-23T08:08:32.896Z,1020.96
2017-09-23T08:10:27.383Z,1021.01
2017-09-23T08:11:27.423Z,1020.99
2017-09-23T08:13:20.887Z,1021.04
2017-09-23T08:14:20.905Z,1021.07
2017-09-23T08:16:15.367Z,1021.07
2017-09-23T08:17:15.408Z,1021.08
2017-09-23T08:19:09.911Z,1021.05
2017-09-23T08:20:09.911Z,1021.12
2017-09-23T08:22:03.367Z,1021.11
2017-09-23T08:23:03.407Z,1021.10
2017-09-23T08:24:57.007Z,1021.11
2017-09-23T08:25:57.040Z,1021.19
2017-09-23T08:27:50.047Z,1021.15
2017-09-23T08:28:50.039Z,1021.21
2017-09-23T08:30:43.056Z,1021.19
2017-09-23T08:31:43.056Z,1021.20
2017-09-23T08:33:36.504Z,1021.28
2017-09-23T08:34:36.568Z,1021.29
2017-09-23T08:36:31.040Z,1021.17
2017-09-23T08:37:31.056Z,1021.18
2017-09-23T08:39:24.624Z,1021.16
2017-09-23T08:40:24.672Z,1021.30
2017-09-23T08:42:17.664Z,1021.30
2017-09-23T08:43:17.672Z,1021.30
2017-09-23T08:45:10.640Z,1021.25
2017-09-23T08:46:10.720Z,1021.25
2017-09-23T08:48:05.168Z,1021.39
2017-09-23T08:49:05.184Z,1021.22
2017-09-23T08:50:59.664Z,1021.25
2017-09-23T08:51:59.705Z,1021.23
2017-09-23T08:53:54.193Z,1021.19
2017-09-23T08:54:54.209Z,1021.19
2017-09-23T08:56:48.681Z,1021.22
2017-09-23T08:57:48.728Z,1021.19
2017-09-23T08:59:43.225Z,1021.27
2017-09-23T09:00:43.238Z,1021.24
2017-09-23T09:02:37.710Z,1021.20
2017-09-23T09:03:37.753Z,1021.21
2017-09-23T09:05:32.265Z,1021.21
2017-09-23T09:06:32.273Z,1021.22
2017-09-23T09:08:26.729Z,1021.22
2017-09-23T09:09:26.953Z,1021.22
2017-09-23T09:11:20.297Z,1021.20
2017-09-23T09:12:20.321Z,1021.25
2017-09-23T09:14:13.858Z,1021.24
2017-09-23T09:15:13.875Z,1021.27
2017-09-23T09:17:08.377Z,1021.14
2017-09-23T09:18:08.401Z,1021.12
2017-09-23T09:20:01.946Z,1021.20
2017-09-23T09:21:01.985Z,1021.19
2017-09-23T09:22:55.447Z,1021.15
2017-09-23T09:23:55.529Z,1021.15
2017-09-23T09:25:49.953Z,1021.10
2017-09-23T09:26:49.988Z,1021.11
2017-09-23T09:28:44.458Z,1021.02
2017-09-23T09:29:44.602Z,1021.03
2017-09-23T09:31:38.082Z,1020.95
2017-09-23T09:32:38.370Z,1020.95
2017-09-23T09:34:31.584Z,1020.95
2017-09-23T09:35:31.848Z,1020.98
2017-09-23T09:37:25.200Z,1020.99
2017-09-23T09:38:25.200Z,1021.06
2017-09-23T09:40:18.672Z,1021.29
2017-09-23T09:41:18.754Z,1021.12
2017-09-23T09:43:12.296Z,1021.18
2017-09-23T09:44:13.280Z,1021.26
2017-09-23T09:46:05.369Z,1021.24
2017-09-23T09:47:05.344Z,1021.15
2017-09-23T09:48:58.832Z,1021.14
2017-09-23T09:49:58.864Z,1021.21
2017-09-23T09:51:53.345Z,1021.32
2017-09-23T09:52:53.393Z,1021.37
2017-09-23T09:54:46.904Z,1021.35
2017-09-23T09:55:46.961Z,1021.32
2017-09-23T09:57:41.425Z,1021.32
2017-09-23T09:58:41.457Z,1021.36
2017-09-23T10:00:34.945Z,1021.40
2017-09-23T10:01:34.969Z,1021.20
2017-09-23T10:03:29.457Z,1021.27
2017-09-23T10:04:29.505Z,1021.37
2017-09-23T10:06:24.009Z,1021.43
2017-09-23T10:07:24.026Z,1021.40
2017-09-23T10:09:18.497Z,1021.45
2017-09-23T10:10:18.545Z,1021.45
2017-09-23T10:12:12.105Z,1021.53
2017-09-23T10:13:12.121Z,1021.33
2017-09-23T10:15:05.169Z,1021.13
2017-09-23T10:16:05.177Z,1021.52
2017-09-23T10:17:59.657Z,1021.07
2017-09-23T10:18:59.698Z,1021.02
2017-09-23T10:20:54.210Z,1020.99
2017-09-23T10:21:54.225Z,1020.98
2017-09-23T10:23:47.698Z,1020.97
2017-09-23T10:24:47.729Z,1020.92
2017-09-23T10:26:42.233Z,1020.92
2017-09-23T10:27:42.255Z,1020.87
2017-09-23T10:29:35.795Z,1020.80
2017-09-23T10:30:35.826Z,1020.81
2017-09-23T10:32:30.322Z,1020.83
2017-09-23T10:33:30.370Z,1020.91
2017-09-23T10:35:23.866Z,1021.07
2017-09-23T10:36:23.923Z,1020.89
2017-09-23T10:38:18.419Z,1020.87
2017-09-23T10:39:18.443Z,1020.82
2017-09-23T10:41:11.906Z,1020.81
2017-09-23T10:42:11.940Z,1020.80
2017-09-23T10:44:06.452Z,1021.14
2017-09-23T10:45:06.487Z,1020.87
2017-09-23T10:47:01.994Z,1020.96
2017-09-23T10:48:02.028Z,1020.92
2017-09-23T10:49:56.506Z,1020.82
2017-09-23T10:50:56.522Z,1020.91
2017-09-23T10:52:50.116Z,1020.96
2017-09-23T10:53:50.116Z,1020.91
2017-09-23T10:55:43.587Z,1021.16
2017-09-23T10:56:43.626Z,1021.17
2017-09-23T10:58:37.651Z,1020.91
2017-09-23T10:59:37.203Z,1020.97
2017-09-23T11:01:30.203Z,1021.04
2017-09-23T11:02:30.252Z,1021.10
2017-09-23T11:04:30.755Z,1020.94
2017-09-23T11:05:23.260Z,1020.95
2017-09-23T11:07:16.252Z,1020.91
2017-09-23T11:08:17.292Z,1020.91
2017-09-23T11:10:09.292Z,1020.88
2017-09-23T11:11:10.403Z,1020.90
2017-09-23T11:13:02.324Z,1020.92
2017-09-23T11:14:02.356Z,1020.91
2017-09-23T11:15:55.380Z,1020.90
2017-09-23T11:16:55.388Z,1020.98
2017-09-23T11:18:48.861Z,1020.87
2017-09-23T11:19:48.900Z,1020.83
2017-09-23T11:21:43.385Z,1020.90
2017-09-23T11:22:43.405Z,1020.82
2017-09-23T11:24:37.925Z,1020.84
2017-09-23T11:25:37.932Z,1020.82
2017-09-23T11:27:32.397Z,1020.76
2017-09-23T11:28:32.444Z,1020.76
2017-09-23T11:30:26.933Z,1020.79
2017-09-23T11:31:26.949Z,1020.75
2017-09-23T11:33:21.429Z,1020.74
2017-09-23T11:34:21.477Z,1020.70
2017-09-23T11:36:15.965Z,1020.68
2017-09-23T11:37:16.021Z,1020.71
2017-09-23T11:39:10.479Z,1020.68
2017-09-23T11:40:10.509Z,1020.70
2017-09-23T11:42:05.006Z,1020.79
2017-09-23T11:43:05.013Z,1020.73
2017-09-23T11:44:58.485Z,1020.67
2017-09-23T11:45:58.518Z,1020.67
2017-09-23T11:47:52.091Z,1020.62
2017-09-23T11:48:52.101Z,1020.58
2017-09-23T11:50:45.093Z,1020.56
2017-09-23T11:51:45.134Z,1020.51
2017-09-23T11:53:38.141Z,1020.52
2017-09-23T11:54:38.158Z,1020.54
2017-09-23T11:56:31.678Z,1020.54
2017-09-23T11:57:31.742Z,1020.55
2017-09-23T11:59:26.318Z,1020.55
2017-09-23T12:00:26.342Z,1020.75
2017-09-23T12:02:19.918Z,1020.75
2017-09-23T12:03:19.943Z,1021.01
2017-09-23T12:05:12.894Z,1021.18
2017-09-23T12:06:12.974Z,1021.16
2017-09-23T12:08:07.487Z,1021.20
2017-09-23T12:09:07.471Z,1021.15
2017-09-23T12:11:01.015Z,1021.01
2017-09-23T12:12:01.057Z,1020.98
2017-09-23T12:13:55.586Z,1020.90
2017-09-23T12:14:55.583Z,1020.88
2017-09-23T12:16:50.063Z,1020.77
2017-09-23T12:17:50.111Z,1020.74
2017-09-23T12:19:43.736Z,1020.82
2017-09-23T12:20:43.639Z,1020.89
2017-09-23T12:22:37.159Z,1020.86
2017-09-23T12:23:37.232Z,1020.95
2017-09-23T12:25:31.695Z,1020.84
2017-09-23T12:26:31.735Z,1020.85
2017-09-23T12:28:25.247Z,1020.82
2017-09-23T12:29:25.279Z,1020.43
2017-09-23T12:31:19.784Z,1020.64
2017-09-23T12:32:19.842Z,1020.79
2017-09-23T12:34:14.344Z,1020.45
2017-09-23T12:35:14.343Z,1020.47
2017-09-23T12:37:08.847Z,1020.45
2017-09-23T12:38:08.904Z,1020.44
2017-09-23T12:40:03.392Z,1020.41
2017-09-23T12:41:03.408Z,1020.37
2017-09-23T12:42:58.016Z,1020.31
2017-09-23T12:43:58.968Z,1020.36
2017-09-23T12:45:51.552Z,1020.50
2017-09-23T12:46:51.584Z,1020.55
2017-09-23T12:48:46.120Z,1020.31
2017-09-23T12:49:46.096Z,1020.29
2017-09-23T12:51:39.584Z,1020.24
2017-09-23T12:52:39.633Z,1020.23
2017-09-23T12:54:33.216Z,1020.20
2017-09-23T12:55:33.216Z,1020.16
2017-09-23T12:57:26.752Z,1020.13
2017-09-23T12:58:26.784Z,1020.20
2017-09-23T13:00:20.312Z,1020.17
2017-09-23T13:01:20.329Z,1020.18
2017-09-23T13:03:14.866Z,1020.19
2017-09-23T13:04:14.915Z,1020.14
2017-09-23T13:06:08.402Z,1020.11
2017-09-23T13:07:08.426Z,1020.15
2017-09-23T13:09:02.905Z,1020.13
2017-09-23T13:10:02.993Z,1020.15
2017-09-23T13:11:57.441Z,1020.13
2017-09-23T13:12:57.453Z,1020.09
2017-09-23T13:14:51.978Z,1020.07
2017-09-23T13:15:51.977Z,1020.08
2017-09-23T13:17:46.489Z,1020.04
2017-09-23T13:18:46.505Z,1020.01
2017-09-23T13:20:40.994Z,1020.01
2017-09-23T13:21:41.051Z,1019.99
2017-09-23T13:23:34.521Z,1020.08
2017-09-23T13:24:34.513Z,1020.05
2017-09-23T13:26:27.501Z,1020.06
2017-09-23T13:27:27.538Z,1020.08
2017-09-23T13:29:21.131Z,1020.08
2017-09-23T13:30:21.122Z,1020.07
2017-09-23T13:32:15.602Z,1020.10
2017-09-23T13:33:15.635Z,1020.11
2017-09-23T13:35:09.218Z,1020.05
2017-09-23T13:36:09.218Z,1020.04
2017-09-23T13:38:03.850Z,1019.99
2017-09-23T13:39:03.802Z,1019.97
2017-09-23T13:40:57.338Z,1019.97
2017-09-23T13:41:57.378Z,1019.97
2017-09-23T13:43:50.395Z,1019.94
2017-09-23T13:44:50.435Z,1019.92
2017-09-23T13:46:43.899Z,1019.94
2017-09-23T13:47:43.955Z,1020.01
2017-09-23T13:49:36.930Z,1019.91
2017-09-23T13:50:36.939Z,1019.89
2017-09-23T13:52:29.931Z,1019.88
2017-09-23T13:53:29.963Z,1019.89
2017-09-23T13:55:22.954Z,1019.85
2017-09-23T13:56:22.971Z,1019.90
2017-09-23T13:58:16.027Z,1019.82
2017-09-23T13:59:16.019Z,1019.85
2017-09-23T14:01:08.987Z,1019.83
2017-09-23T14:02:09.027Z,1019.80
2017-09-23T14:04:02.020Z,1019.79
2017-09-23T14:05:02.028Z,1019.81
2017-09-23T14:06:55.020Z,1019.80
2017-09-23T14:07:55.100Z,1019.80
2017-09-23T14:09:48.083Z,1019.75
2017-09-23T14:10:48.091Z,1019.75
2017-09-23T14:12:41.076Z,1019.74
2017-09-23T14:13:41.091Z,1019.71
2017-09-23T14:15:34.139Z,1019.71
2017-09-23T14:16:34.124Z,1019.70
2017-09-23T14:18:27.629Z,1019.64
2017-09-23T14:19:27.676Z,1019.65
2017-09-23T14:21:20.656Z,1019.65
2017-09-23T14:22:20.679Z,1019.65
2017-09-23T14:24:13.709Z,1019.63
2017-09-23T14:25:15.677Z,1019.67
2017-09-23T14:27:06.684Z,1019.66
2017-09-23T14:28:06.733Z,1019.65
2017-09-23T14:29:59.716Z,1019.61
2017-09-23T14:30:59.756Z,1019.62
2017-09-23T14:32:52.757Z,1019.54
2017-09-23T14:33:52.821Z,1019.53
2017-09-23T14:35:45.789Z,1019.47
2017-09-23T14:36:45.781Z,1019.45
2017-09-23T14:38:38.805Z,1019.43
2017-09-23T14:39:38.789Z,1019.38
2017-09-23T14:41:31.925Z,1019.36
2017-09-23T14:42:31.837Z,1019.33
2017-09-23T14:44:24.789Z,1019.32
2017-09-23T14:45:24.845Z,1019.36
2017-09-23T14:47:17.901Z,1019.36
2017-09-23T14:48:17.925Z,1019.37
2017-09-23T14:50:10.879Z,1019.34
2017-09-23T14:51:10.915Z,1019.34
2017-09-23T14:53:03.901Z,1019.31
2017-09-23T14:54:03.901Z,1019.28
2017-09-23T14:55:56.877Z,1019.31
2017-09-23T14:56:56.934Z,1019.29
2017-09-23T14:58:49.981Z,1019.30
2017-09-23T14:59:49.966Z,1019.28
2017-09-23T15:01:42.894Z,1019.27
2017-09-23T15:02:42.958Z,1019.28
2017-09-23T15:04:35.976Z,1019.27
2017-09-23T15:05:35.998Z,1019.26
2017-09-23T15:07:28.918Z,1019.32
2017-09-23T15:08:28.999Z,1019.25
2017-09-23T15:10:22.014Z,1019.29
2017-09-23T15:11:22.006Z,1019.27
2017-09-23T15:13:15.454Z,1019.30
2017-09-23T15:14:15.494Z,1019.22
2017-09-23T15:16:09.039Z,1019.26
2017-09-23T15:17:09.079Z,1019.25
2017-09-23T15:19:02.106Z,1019.24
2017-09-23T15:20:02.115Z,1019.21
2017-09-23T15:21:55.151Z,1019.16
2017-09-23T15:22:55.143Z,1019.18
2017-09-23T15:24:49.071Z,1019.20
2017-09-23T15:25:48.160Z,1019.21
2017-09-23T15:27:41.135Z,1019.20
2017-09-23T15:28:41.144Z,1019.30
2017-09-23T15:30:35.782Z,1019.36
2017-09-23T15:31:35.816Z,1019.37
2017-09-23T15:33:30.303Z,1019.33
2017-09-23T15:34:30.328Z,1019.34
2017-09-23T15:36:24.816Z,1019.28
2017-09-23T15:37:24.839Z,1019.33
2017-09-23T15:39:18.391Z,1019.35
2017-09-23T15:40:18.416Z,1019.37
2017-09-23T15:42:11.480Z,1019.30
2017-09-23T15:43:11.463Z,1019.29
2017-09-23T15:45:05.929Z,1019.33
2017-09-23T15:46:06.312Z,1019.26
2017-09-23T15:48:00.048Z,1019.25
2017-09-23T15:49:00.050Z,1019.24
2017-09-23T15:50:54.576Z,1019.20
2017-09-23T15:51:54.824Z,1019.19
2017-09-23T15:53:48.088Z,1019.18
2017-09-23T15:54:48.136Z,1019.18
2017-09-23T15:56:42.688Z,1019.17
2017-09-23T15:57:43.632Z,1019.16
2017-09-23T15:59:36.152Z,1019.20
2017-09-23T16:00:35.650Z,1019.23
2017-09-23T16:02:28.673Z,1019.19
2017-09-23T16:03:28.713Z,1019.17
2017-09-23T16:05:21.685Z,1019.16
2017-09-23T16:06:22.657Z,1019.18
2017-09-23T16:08:16.161Z,1019.16
2017-09-23T16:09:16.185Z,1019.19
2017-09-23T16:11:09.785Z,1019.19
2017-09-23T16:12:09.849Z,1019.18
2017-09-23T16:14:04.301Z,1019.13
2017-09-23T16:15:04.306Z,1019.12
2017-09-23T16:16:57.881Z,1019.08
2017-09-23T16:17:57.906Z,1019.03
2017-09-23T16:19:52.329Z,1019.07
2017-09-23T16:20:53.913Z,1019.08
2017-09-23T16:22:46.858Z,1019.02
2017-09-23T16:23:47.513Z,1019.02
2017-09-23T16:25:40.938Z,1019.02
2017-09-23T16:26:40.930Z,1018.97
2017-09-23T16:28:33.918Z,1018.99
2017-09-23T16:29:33.938Z,1019.03
2017-09-23T16:31:26.946Z,1019.05
2017-09-23T16:32:26.957Z,1019.04
2017-09-23T16:34:19.970Z,1019.03
2017-09-23T16:35:19.963Z,1019.00
2017-09-23T16:37:14.451Z,1019.01
2017-09-23T16:38:14.475Z,1019.01
2017-09-23T16:40:08.034Z,1018.95
2017-09-23T16:41:08.050Z,1018.97
2017-09-23T16:43:01.074Z,1018.94
2017-09-23T16:44:01.019Z,1018.99
2017-09-23T16:45:54.563Z,1019.02
2017-09-23T16:46:54.778Z,1019.01
2017-09-23T16:48:48.115Z,1019.03
2017-09-23T16:49:48.154Z,1019.02
2017-09-23T16:51:41.130Z,1019.06
2017-09-23T16:52:41.139Z,1019.08
2017-09-23T16:56:13.220Z,1019.07
2017-09-23T16:57:13.086Z,1019.08
2017-09-23T16:59:06.079Z,1019.07
2017-09-23T17:00:06.148Z,1019.12
2017-09-23T17:01:59.108Z,1019.16
2017-09-23T17:03:00.119Z,1019.14
2017-09-23T17:04:52.083Z,1019.11
2017-09-23T17:05:52.115Z,1019.13
2017-09-23T17:07:45.603Z,1019.12
2017-09-23T17:08:45.651Z,1019.14
2017-09-23T17:10:41.620Z,1019.18
2017-09-23T17:11:41.628Z,1019.19
2017-09-23T17:13:36.252Z,1019.15
2017-09-23T17:14:36.140Z,1019.14
2017-09-23T17:16:29.676Z,1019.13
2017-09-23T17:17:29.716Z,1019.13
2017-09-23T17:19:24.204Z,1019.13
2017-09-23T17:20:24.204Z,1019.14
2017-09-23T17:22:19.252Z,1019.13
2017-09-23T17:23:19.286Z,1019.11
2017-09-23T17:25:13.749Z,1019.14
2017-09-23T17:26:13.748Z,1019.14
2017-09-23T17:28:08.341Z,1019.17
2017-09-23T17:29:08.349Z,1019.18
2017-09-23T17:31:01.925Z,1019.19
2017-09-23T17:32:01.957Z,1019.18
2017-09-23T17:33:55.365Z,1019.17